PWSweather.com
Personal Weather Stations
Station Observations
BLACKWELL
Blackwell, AlfretonGB DE55

BlackwellAlfretonGB DE55

Lat: 53.12076, Lon: -1.354978

Elevation: 410

Station Type: Vantage Pro

High Low Average
Temperature 44.1°F6.7°C 35.2°F1.8°C 39.3°F4.1°C
Dew Point 35.6°F2.0°C 31.3°F-0.4°C 33.6°F0.9°C
Winds 2.0 mph 3.2 kmh Calm Calm 1.0 mph SW1.6 kmh SW
Wind Gusts 10.0 mph16.1 kmh 2.0 mph3.2 kmh 5.0 mph8.0 kmh
Humidity 94% 70% 80%
Pressure 29.75 in1007.5 mb 29.39 in995.3 mb -
Precipitation 0.01 in0.3 mm - -
Hour Temp Dew Point Humidity Winds Wind Gusts Pressure Precip Precip Rate Daily Precip Total
12:46 AM 35.2°F1.8°C 33.8°F1.0°C 94% Calm Calm 2.0 mph3.2 kmh 29.39 in995.3 mb 0.01 in0.3 mm 0.01 in0.3 mm 0.01 in0.3 mm
01:46 AM 36.5°F2.5°C 34.3°F1.3°C 92% Calm Calm 2.0 mph3.2 kmh 29.42 in996.3 mb 0.00 in0.0 mm 0.00 in0.0 mm 0.01 in0.3 mm
02:46 AM 36.1°F2.3°C 33.4°F0.8°C 90% Calm Calm 5.0 mph8.0 kmh 29.45 in997.3 mb 0.00 in0.0 mm 0.00 in0.0 mm 0.01 in0.3 mm
03:46 AM 35.4°F1.9°C 32.5°F0.3°C 89% Calm Calm 2.0 mph3.2 kmh 29.46 in997.6 mb 0.00 in0.0 mm 0.00 in0.0 mm 0.01 in0.3 mm
04:46 AM 37.2°F2.9°C 33.6°F0.9°C 87% 1.0 mph SW1.6 kmh SW 7.0 mph11.3 kmh 29.47 in998.0 mb 0.00 in0.0 mm 0.00 in0.0 mm 0.01 in0.3 mm
05:46 AM 37.9°F3.3°C 34.2°F1.2°C 86% 2.0 mph SW3.2 kmh SW 6.0 mph9.7 kmh 29.48 in998.3 mb 0.00 in0.0 mm 0.00 in0.0 mm 0.01 in0.3 mm
06:46 AM 37.9°F3.3°C 33.8°F1.0°C 85% 1.0 mph SW1.6 kmh SW 4.0 mph6.4 kmh 29.50 in999.0 mb 0.00 in0.0 mm 0.00 in0.0 mm 0.01 in0.3 mm
07:46 AM 37.9°F3.3°C 33.8°F1.0°C 85% 1.0 mph SW1.6 kmh SW 7.0 mph11.3 kmh 29.52 in999.7 mb 0.00 in0.0 mm 0.00 in0.0 mm 0.01 in0.3 mm
08:46 AM 37.9°F3.3°C 33.4°F0.8°C 84% 1.0 mph SSW1.6 kmh SSW 4.0 mph6.4 kmh 29.55 in1000.7 mb 0.00 in0.0 mm 0.00 in0.0 mm 0.01 in0.3 mm
09:46 AM 39.4°F4.1°C 34.0°F1.1°C 81% 2.0 mph SW3.2 kmh SW 8.0 mph12.9 kmh 29.55 in1000.7 mb 0.00 in0.0 mm 0.00 in0.0 mm 0.01 in0.3 mm
10:46 AM 41.2°F5.1°C 34.7°F1.5°C 78% 2.0 mph SW3.2 kmh SW 7.0 mph11.3 kmh 29.57 in1001.4 mb 0.00 in0.0 mm 0.00 in0.0 mm 0.01 in0.3 mm
11:46 AM 42.4°F5.8°C 34.5°F1.4°C 73% 2.0 mph SW3.2 kmh SW 7.0 mph11.3 kmh 29.57 in1001.4 mb 0.00 in0.0 mm 0.00 in0.0 mm 0.01 in0.3 mm
12:46 PM 42.8°F6.0°C 35.1°F1.7°C 74% 2.0 mph SW3.2 kmh SW 9.0 mph14.5 kmh 29.57 in1001.4 mb 0.00 in0.0 mm 0.00 in0.0 mm 0.01 in0.3 mm
01:46 PM 44.1°F6.7°C 35.6°F2.0°C 72% 2.0 mph SW3.2 kmh SW 10.0 mph16.1 kmh 29.59 in1002.0 mb 0.00 in0.0 mm 0.00 in0.0 mm 0.01 in0.3 mm
02:46 PM 43.0°F6.1°C 34.9°F1.6°C 73% 1.0 mph E1.6 kmh E 9.0 mph14.5 kmh 29.61 in1002.7 mb 0.00 in0.0 mm 0.00 in0.0 mm 0.01 in0.3 mm
03:46 PM 42.4°F5.8°C 35.1°F1.7°C 75% 2.0 mph N3.2 kmh N 8.0 mph12.9 kmh 29.63 in1003.4 mb 0.00 in0.0 mm 0.00 in0.0 mm 0.01 in0.3 mm
04:46 PM 42.8°F6.0°C 34.0°F1.1°C 71% 1.0 mph S1.6 kmh S 5.0 mph8.0 kmh 29.65 in1004.1 mb 0.00 in0.0 mm 0.00 in0.0 mm 0.01 in0.3 mm
05:46 PM 41.9°F5.5°C 32.9°F0.5°C 70% 1.0 mph S1.6 kmh S 6.0 mph9.7 kmh 29.68 in1005.1 mb 0.00 in0.0 mm 0.00 in0.0 mm 0.01 in0.3 mm
06:46 PM 40.6°F4.8°C 32.0°F0.0°C 71% 1.0 mph SW1.6 kmh SW 5.0 mph8.0 kmh 29.70 in1005.8 mb 0.00 in0.0 mm 0.00 in0.0 mm 0.01 in0.3 mm
07:46 PM 39.6°F4.2°C 31.3°F-0.4°C 72% Calm Calm 2.0 mph3.2 kmh 29.72 in1006.4 mb 0.00 in0.0 mm 0.00 in0.0 mm 0.01 in0.3 mm
08:46 PM 38.1°F3.4°C 32.5°F0.3°C 80% Calm Calm 2.0 mph3.2 kmh 29.73 in1006.8 mb 0.00 in0.0 mm 0.00 in0.0 mm 0.01 in0.3 mm
09:46 PM 37.8°F3.2°C 32.2°F0.1°C 80% Calm Calm 4.0 mph6.4 kmh 29.74 in1007.1 mb 0.00 in0.0 mm 0.00 in0.0 mm 0.01 in0.3 mm
10:46 PM 37.9°F3.3°C 32.4°F0.2°C 80% Calm Calm 3.0 mph4.8 kmh 29.75 in1007.5 mb 0.00 in0.0 mm 0.00 in0.0 mm 0.01 in0.3 mm
11:46 PM 37.4°F3.0°C 32.4°F0.2°C 82% Calm Calm 3.0 mph4.8 kmh 29.75 in1007.5 mb 0.00 in0.0 mm 0.00 in0.0 mm 0.01 in0.3 mm